createdAt,value
2022-11-25T00:02:17.992Z,77.18
2022-11-25T00:04:50.549Z,77.29
2022-11-25T00:07:23.208Z,77.45
2022-11-25T00:09:55.701Z,78.12
2022-11-25T00:12:29.605Z,78.09
2022-11-25T00:15:02.181Z,77.72
2022-11-25T00:17:35.865Z,77.70
2022-11-25T00:20:09.261Z,78.16
2022-11-25T00:22:41.745Z,76.96
2022-11-25T00:25:14.403Z,77.19
2022-11-25T00:27:48.430Z,77.03
2022-11-25T00:30:20.933Z,77.90
2022-11-25T00:32:53.822Z,77.51
2022-11-25T00:35:26.373Z,77.10
2022-11-25T00:37:58.983Z,77.70
2022-11-25T00:40:31.367Z,76.97
2022-11-25T00:43:23.457Z,77.29
2022-11-25T00:45:56.010Z,77.64
2022-11-25T00:48:28.810Z,77.52
2022-11-25T00:51:01.335Z,77.34
2022-11-25T00:53:33.721Z,77.60
2022-11-25T00:56:15.842Z,78.15
2022-11-25T00:58:50.268Z,77.97
2022-11-25T01:01:23.185Z,77.75
2022-11-25T01:03:55.823Z,77.09
2022-11-25T01:06:28.325Z,77.51
2022-11-25T01:09:01.161Z,77.21
2022-11-25T01:11:34.147Z,77.47
2022-11-25T01:14:08.938Z,77.20
2022-11-25T01:16:41.913Z,77.97
2022-11-25T01:19:15.306Z,77.40
2022-11-25T01:21:48.123Z,77.03
2022-11-25T01:24:20.628Z,77.62
2022-11-25T01:26:55.922Z,77.25
2022-11-25T01:29:30.060Z,76.88
2022-11-25T01:32:02.740Z,77.85
2022-11-25T01:34:35.897Z,76.95
2022-11-25T01:37:08.611Z,77.45
2022-11-25T01:39:41.278Z,77.60
2022-11-25T01:42:13.702Z,77.85
2022-11-25T01:45:18.274Z,77.33
2022-11-25T01:47:57.189Z,77.28
2022-11-25T01:50:32.561Z,77.83
2022-11-25T01:53:10.960Z,76.92
2022-11-25T01:55:48.204Z,77.69
2022-11-25T01:58:26.960Z,77.91
2022-11-25T02:01:00.049Z,77.55
2022-11-25T02:03:38.109Z,77.63
2022-11-25T02:06:15.470Z,77.70
2022-11-25T02:08:51.277Z,77.84
2022-11-25T02:11:27.191Z,77.92
2022-11-25T02:14:00.848Z,77.05
2022-11-25T02:16:33.401Z,77.81
2022-11-25T02:19:11.954Z,77.33
2022-11-25T02:21:52.225Z,77.04
2022-11-25T02:24:31.735Z,77.42
2022-11-25T02:27:06.361Z,76.58
2022-11-25T02:29:39.639Z,77.75
2022-11-25T02:32:12.421Z,77.34
2022-11-25T02:34:47.520Z,76.88
2022-11-25T02:37:23.708Z,76.95
2022-11-25T02:39:56.241Z,76.85
2022-11-25T02:42:31.055Z,77.86
2022-11-25T02:45:04.683Z,77.98
2022-11-25T02:47:37.195Z,78.00
2022-11-25T02:50:13.683Z,77.74
2022-11-25T02:52:46.388Z,78.02
2022-11-25T02:55:18.921Z,77.25
2022-11-25T02:57:53.041Z,77.27
2022-11-25T03:00:25.686Z,77.11
2022-11-25T03:02:58.520Z,77.73
2022-11-25T03:05:31.124Z,77.27
2022-11-25T03:08:05.833Z,76.97
2022-11-25T03:10:42.624Z,77.09
2022-11-25T03:13:16.719Z,77.51
2022-11-25T03:15:49.163Z,77.37
2022-11-25T03:18:21.683Z,77.85
2022-11-25T03:20:55.472Z,77.50
2022-11-25T03:23:30.877Z,77.23
2022-11-25T03:26:06.786Z,77.58
2022-11-25T03:28:41.088Z,77.85
2022-11-25T03:31:14.303Z,77.10
2022-11-25T03:33:47.111Z,76.96
2022-11-25T03:36:20.945Z,77.24
2022-11-25T03:38:53.726Z,77.75
2022-11-25T03:41:26.355Z,77.95
2022-11-25T03:44:00.765Z,77.88
2022-11-25T03:46:33.350Z,77.83
2022-11-25T03:49:09.322Z,77.52
2022-11-25T03:51:42.028Z,77.27
2022-11-25T03:54:14.964Z,77.21
2022-11-25T03:57:10.357Z,77.76
2022-11-25T03:59:44.833Z,77.22
2022-11-25T04:02:17.312Z,77.73
2022-11-25T04:04:50.320Z,76.94
2022-11-25T04:07:24.022Z,77.47
2022-11-25T04:09:57.019Z,77.63
2022-11-25T04:12:47.438Z,77.52
2022-11-25T04:15:25.939Z,77.70
2022-11-25T04:18:02.744Z,77.71
2022-11-25T04:20:37.440Z,76.81
2022-11-25T04:23:14.053Z,77.25
2022-11-25T04:25:58.370Z,76.95
2022-11-25T04:28:41.744Z,76.84
2022-11-25T04:31:16.007Z,77.47
2022-11-25T04:33:52.728Z,77.39
2022-11-25T04:36:28.456Z,77.37
2022-11-25T04:39:01.055Z,76.86
2022-11-25T04:41:33.625Z,77.49
2022-11-25T04:44:06.610Z,77.50
2022-11-25T04:46:44.467Z,77.58
2022-11-25T04:49:16.952Z,77.19
2022-11-25T04:51:49.583Z,77.04
2022-11-25T04:54:22.064Z,77.06
2022-11-25T04:56:56.238Z,77.20
2022-11-25T04:59:40.978Z,77.16
2022-11-25T05:02:18.912Z,76.64
2022-11-25T05:05:01.096Z,76.57
2022-11-25T05:07:37.069Z,77.54
2022-11-25T05:10:10.012Z,76.81
2022-11-25T05:12:46.780Z,77.24
2022-11-25T05:15:22.714Z,76.79
2022-11-25T05:17:56.813Z,76.87
2022-11-25T05:21:01.545Z,77.57
2022-11-25T05:23:35.519Z,77.50
2022-11-25T05:26:08.849Z,77.21
2022-11-25T05:28:51.841Z,76.88
2022-11-25T05:31:24.463Z,77.26
2022-11-25T05:34:00.703Z,76.90
2022-11-25T05:36:33.429Z,76.67
2022-11-25T05:39:06.197Z,77.18
2022-11-25T05:41:58.541Z,77.72
2022-11-25T05:44:31.127Z,77.24
2022-11-25T05:47:03.768Z,76.92
2022-11-25T05:49:37.871Z,76.64
2022-11-25T05:52:11.107Z,77.20
2022-11-25T05:54:56.966Z,76.98
2022-11-25T05:57:30.194Z,76.53
2022-11-25T06:00:12.419Z,77.31
2022-11-25T06:02:50.718Z,76.35
2022-11-25T06:05:25.848Z,76.92
2022-11-25T06:07:58.519Z,77.28
2022-11-25T06:10:32.355Z,76.69
2022-11-25T06:13:04.947Z,77.39
2022-11-25T06:15:42.555Z,77.09
2022-11-25T06:18:18.014Z,76.73
2022-11-25T06:20:58.772Z,77.53
2022-11-25T06:23:31.751Z,76.56
2022-11-25T06:26:06.322Z,77.38
2022-11-25T06:28:39.068Z,77.08
2022-11-25T06:31:14.141Z,76.82
2022-11-25T06:33:57.139Z,76.58
2022-11-25T06:36:31.078Z,77.22
2022-11-25T06:39:03.578Z,77.24
2022-11-25T06:41:36.232Z,76.66
2022-11-25T06:44:08.801Z,77.29
2022-11-25T06:46:41.514Z,77.48
2022-11-25T06:49:14.029Z,77.30
2022-11-25T06:51:49.739Z,76.40
2022-11-25T06:54:22.288Z,76.46
2022-11-25T06:56:54.891Z,76.33
2022-11-25T06:59:27.619Z,76.82
2022-11-25T07:02:00.512Z,76.23
2022-11-25T07:04:35.485Z,75.89
2022-11-25T07:07:09.827Z,75.59
2022-11-25T07:09:42.719Z,75.62
2022-11-25T07:12:15.601Z,75.58
2022-11-25T07:14:50.891Z,75.56
2022-11-25T07:17:24.020Z,76.58
2022-11-25T07:19:58.288Z,75.76
2022-11-25T07:22:32.751Z,76.63
2022-11-25T07:25:05.900Z,76.14
2022-11-25T07:27:38.526Z,76.46
2022-11-25T07:31:09.509Z,75.65
2022-11-25T07:33:04.488Z,76.14
2022-11-25T07:35:36.985Z,76.27
2022-11-25T07:38:10.908Z,75.99
2022-11-25T07:40:43.409Z,75.58
2022-11-25T07:43:16.052Z,75.32
2022-11-25T07:45:48.877Z,76.14
2022-11-25T07:48:21.723Z,75.82
2022-11-25T07:50:54.370Z,75.58
2022-11-25T07:53:28.505Z,75.53
2022-11-25T07:56:02.675Z,75.42
2022-11-25T07:58:35.195Z,75.14
2022-11-25T08:01:09.593Z,75.39
2022-11-25T08:03:43.942Z,75.38
2022-11-25T08:06:18.793Z,75.89
2022-11-25T08:08:54.866Z,75.78
2022-11-25T08:11:29.596Z,75.64
2022-11-25T08:14:03.174Z,75.46
2022-11-25T08:16:35.655Z,76.24
2022-11-25T08:19:11.713Z,75.71
2022-11-25T08:21:44.727Z,75.25
2022-11-25T08:24:20.851Z,75.66
2022-11-25T08:26:55.063Z,75.86
2022-11-25T08:29:27.550Z,74.76
2022-11-25T08:32:00.020Z,75.02
2022-11-25T08:34:32.769Z,75.05
2022-11-25T08:37:09.189Z,75.22
2022-11-25T08:39:58.647Z,75.72
2022-11-25T08:42:31.199Z,75.13
2022-11-25T08:45:05.244Z,75.67
2022-11-25T08:47:37.965Z,74.92
2022-11-25T08:50:14.125Z,75.35
2022-11-25T08:52:46.878Z,75.03
2022-11-25T08:55:22.169Z,75.73
2022-11-25T08:57:55.084Z,75.80
2022-11-25T09:00:27.541Z,76.03
2022-11-25T09:03:00.135Z,75.18
2022-11-25T09:05:36.343Z,75.68
2022-11-25T09:08:09.636Z,75.63
2022-11-25T09:10:43.863Z,76.50
2022-11-25T09:13:16.309Z,76.22
2022-11-25T09:15:49.074Z,76.43
2022-11-25T09:18:26.133Z,76.29
2022-11-25T09:20:59.654Z,75.96
2022-11-25T09:23:32.017Z,75.36
2022-11-25T09:26:07.801Z,75.49
2022-11-25T09:28:40.247Z,76.33
2022-11-25T09:31:12.745Z,75.49
2022-11-25T09:33:45.542Z,75.55
2022-11-25T09:36:20.485Z,75.70
2022-11-25T09:38:53.216Z,76.24
2022-11-25T09:42:00.513Z,76.08
2022-11-25T09:45:06.996Z,75.95
2022-11-25T09:47:51.710Z,76.55
2022-11-25T09:50:39.711Z,76.57
2022-11-25T09:53:23.290Z,75.63
2022-11-25T09:56:02.633Z,75.93
2022-11-25T09:58:41.274Z,75.35
2022-11-25T10:01:17.426Z,75.85
2022-11-25T10:03:55.180Z,75.42
2022-11-25T10:06:31.265Z,76.45
2022-11-25T10:09:11.726Z,76.12
2022-11-25T10:11:51.463Z,76.57
2022-11-25T10:14:31.872Z,76.49
2022-11-25T10:17:13.661Z,76.11
2022-11-25T10:19:57.292Z,76.48
2022-11-25T10:22:32.855Z,75.96
2022-11-25T10:25:14.936Z,76.00
2022-11-25T10:27:52.978Z,76.42
2022-11-25T10:30:33.785Z,75.59
2022-11-25T10:33:15.239Z,76.59
2022-11-25T10:35:51.977Z,76.70
2022-11-25T10:38:28.712Z,76.48
2022-11-25T10:41:03.526Z,76.56
2022-11-25T10:43:39.814Z,76.76
2022-11-25T10:46:24.293Z,76.44
2022-11-25T10:49:01.742Z,76.10
2022-11-25T10:51:38.875Z,75.70
2022-11-25T10:54:27.491Z,76.48
2022-11-25T10:57:02.969Z,76.32
2022-11-25T10:59:38.356Z,76.64
2022-11-25T11:02:19.941Z,76.83
2022-11-25T11:04:56.397Z,75.65
2022-11-25T11:07:30.939Z,75.65
2022-11-25T11:10:19.701Z,75.55
2022-11-25T11:12:58.309Z,75.48
2022-11-25T11:15:32.592Z,76.27
2022-11-25T11:18:26.944Z,76.17
2022-11-25T11:21:00.825Z,76.37
2022-11-25T11:23:48.236Z,76.03
2022-11-25T11:26:27.147Z,75.68
2022-11-25T11:29:08.454Z,75.16
2022-11-25T11:31:48.407Z,76.28
2022-11-25T11:34:48.844Z,75.82
2022-11-25T11:37:35.893Z,76.06
2022-11-25T11:40:29.433Z,75.81
2022-11-25T11:43:14.605Z,75.99
2022-11-25T11:46:01.078Z,75.39
2022-11-25T11:48:43.163Z,75.85
2022-11-25T11:51:27.522Z,75.25
2022-11-25T11:54:08.030Z,75.48
2022-11-25T11:56:43.136Z,75.41
2022-11-25T11:59:47.000Z,75.39
2022-11-25T12:02:50.168Z,75.34
2022-11-25T12:05:26.843Z,75.89
2022-11-25T12:08:10.148Z,75.65
2022-11-25T12:10:47.844Z,75.78
2022-11-25T12:13:27.891Z,75.90
2022-11-25T12:16:08.081Z,75.52
2022-11-25T12:18:49.350Z,76.64
2022-11-25T12:21:41.551Z,75.63
2022-11-25T12:24:24.392Z,76.14
2022-11-25T12:27:02.730Z,76.49
2022-11-25T12:29:46.095Z,76.14
2022-11-25T12:32:39.886Z,75.61
2022-11-25T12:35:22.961Z,76.19
2022-11-25T12:38:04.160Z,75.98
2022-11-25T12:40:45.686Z,76.26
2022-11-25T12:43:29.043Z,76.57
2022-11-25T12:46:12.480Z,76.36
2022-11-25T12:48:45.321Z,75.84
2022-11-25T12:51:37.113Z,76.52
2022-11-25T12:54:24.581Z,76.62
2022-11-25T12:57:19.825Z,76.74
2022-11-25T13:00:33.284Z,76.03
2022-11-25T13:03:24.075Z,76.81
2022-11-25T13:06:39.125Z,76.03
2022-11-25T13:09:32.124Z,76.27
2022-11-25T13:12:21.089Z,75.95
2022-11-25T13:15:28.048Z,76.93
2022-11-25T13:18:10.033Z,75.93
2022-11-25T13:20:48.867Z,76.23
2022-11-25T13:23:47.504Z,76.07
2022-11-25T13:26:50.053Z,76.03
2022-11-25T13:29:59.378Z,76.04
2022-11-25T13:32:41.241Z,76.88
2022-11-25T13:35:32.228Z,75.92
2022-11-25T13:38:24.682Z,76.16
2022-11-25T13:40:59.573Z,76.73
2022-11-25T13:43:33.792Z,76.52
2022-11-25T13:46:06.868Z,76.42
2022-11-25T13:48:45.228Z,76.42
2022-11-25T13:51:21.085Z,76.95
2022-11-25T13:53:56.253Z,75.96
2022-11-25T13:56:32.286Z,76.53
2022-11-25T13:59:38.773Z,76.35
2022-11-25T14:02:30.563Z,76.16
2022-11-25T14:05:15.980Z,76.82
2022-11-25T14:08:08.298Z,76.71
2022-11-25T14:10:46.212Z,76.21
2022-11-25T14:13:34.882Z,76.85
2022-11-25T14:16:21.102Z,77.23
2022-11-25T14:22:27.555Z,76.66
2022-11-25T14:25:13.634Z,77.14
2022-11-25T14:27:49.113Z,76.43
2022-11-25T14:30:21.916Z,76.91
2022-11-25T14:32:59.251Z,76.70
2022-11-25T14:35:40.302Z,76.38
2022-11-25T14:38:22.808Z,76.67
2022-11-25T14:41:04.100Z,76.80
2022-11-25T14:43:42.556Z,76.99
2022-11-25T14:46:16.743Z,77.08
2022-11-25T14:48:57.079Z,76.41
2022-11-25T14:51:35.835Z,76.80
2022-11-25T14:54:10.517Z,76.35
2022-11-25T14:56:43.138Z,77.03
2022-11-25T14:59:16.150Z,76.70
2022-11-25T15:01:54.327Z,76.59
2022-11-25T15:04:27.229Z,77.02
2022-11-25T15:07:01.064Z,77.13
2022-11-25T15:09:42.551Z,77.24
2022-11-25T15:12:17.860Z,76.58
2022-11-25T15:14:54.094Z,76.99
2022-11-25T15:17:28.997Z,77.46
2022-11-25T15:20:04.736Z,76.82
2022-11-25T15:22:37.251Z,76.57
2022-11-25T15:25:15.519Z,77.01
2022-11-25T15:27:50.330Z,77.61
2022-11-25T15:30:25.286Z,77.26
2022-11-25T15:32:58.511Z,76.40
2022-11-25T15:35:31.108Z,77.16
2022-11-25T15:38:17.710Z,77.28
2022-11-25T15:40:57.365Z,77.22
2022-11-25T15:43:31.888Z,76.58
2022-11-25T15:46:06.267Z,77.58
2022-11-25T15:48:45.292Z,77.23
2022-11-25T15:51:27.147Z,76.90
2022-11-25T15:54:03.530Z,77.03
2022-11-25T15:56:44.353Z,77.39
2022-11-25T15:59:40.305Z,77.43
2022-11-25T16:02:38.582Z,77.50
2022-11-25T16:05:37.808Z,76.62
2022-11-25T16:08:30.304Z,76.47
2022-11-25T16:11:19.425Z,77.35
2022-11-25T16:13:54.005Z,77.04
2022-11-25T16:16:28.620Z,76.66
2022-11-25T16:19:24.435Z,76.88
2022-11-25T16:22:00.922Z,76.92
2022-11-25T16:24:38.034Z,77.39
2022-11-25T16:27:17.895Z,77.40
2022-11-25T16:29:54.836Z,77.27
2022-11-25T16:32:29.037Z,77.10
2022-11-25T16:35:13.054Z,76.77
2022-11-25T16:37:49.295Z,77.49
2022-11-25T16:40:22.889Z,77.59
2022-11-25T16:42:56.210Z,77.23
2022-11-25T16:45:30.276Z,76.67
2022-11-25T16:48:02.745Z,77.20
2022-11-25T16:50:40.349Z,76.71
2022-11-25T16:53:13.828Z,77.68
2022-11-25T16:55:47.453Z,77.39
2022-11-25T16:58:24.283Z,77.04
2022-11-25T17:00:59.181Z,77.01
2022-11-25T17:03:31.875Z,76.77
2022-11-25T17:06:21.459Z,77.04
2022-11-25T17:08:54.908Z,76.78
2022-11-25T17:11:32.814Z,76.67
2022-11-25T17:14:11.534Z,76.94
2022-11-25T17:16:48.607Z,77.25
2022-11-25T17:19:33.515Z,77.45
2022-11-25T17:22:16.777Z,77.73
2022-11-25T17:24:50.110Z,77.33
2022-11-25T17:27:34.347Z,77.42
2022-11-25T17:30:16.918Z,76.75
2022-11-25T17:32:56.360Z,77.30
2022-11-25T17:35:29.244Z,77.53
2022-11-25T17:38:02.031Z,76.85
2022-11-25T17:40:34.506Z,76.98
2022-11-25T17:43:09.511Z,77.12
2022-11-25T17:45:42.803Z,76.77
2022-11-25T17:48:18.428Z,76.86
2022-11-25T17:50:51.138Z,77.72
2022-11-25T17:53:23.838Z,77.07
2022-11-25T17:55:56.629Z,77.71
2022-11-25T17:58:30.682Z,77.04
2022-11-25T18:01:03.304Z,77.14
2022-11-25T18:03:37.437Z,77.49
2022-11-25T18:06:10.102Z,77.09
2022-11-25T18:08:42.707Z,77.46
2022-11-25T18:11:18.818Z,77.04
2022-11-25T18:13:51.874Z,77.98
2022-11-25T18:16:24.706Z,77.84
2022-11-25T18:18:59.073Z,77.08
2022-11-25T18:21:31.597Z,77.87
2022-11-25T18:24:04.897Z,77.78
2022-11-25T18:26:44.036Z,77.16
2022-11-25T18:29:23.280Z,77.57
2022-11-25T18:31:56.809Z,77.12
2022-11-25T18:34:30.865Z,77.63
2022-11-25T18:37:04.487Z,77.67
2022-11-25T18:39:37.070Z,78.03
2022-11-25T18:45:36.760Z,77.69
2022-11-25T18:48:15.003Z,77.47
2022-11-25T18:50:51.395Z,77.16
2022-11-25T18:53:23.913Z,77.31
2022-11-25T18:55:56.502Z,77.87
2022-11-25T18:58:29.085Z,77.95
2022-11-25T19:01:04.208Z,77.77
2022-11-25T19:03:36.812Z,77.82
2022-11-25T19:06:15.423Z,77.61
2022-11-25T19:08:48.040Z,78.07
2022-11-25T19:11:27.714Z,77.75
2022-11-25T19:14:04.788Z,77.83
2022-11-25T19:16:37.785Z,77.69
2022-11-25T19:19:14.657Z,77.77
2022-11-25T19:21:48.675Z,77.28
2022-11-25T19:24:21.377Z,77.84
2022-11-25T19:26:56.460Z,78.04
2022-11-25T19:29:38.768Z,77.39
2022-11-25T19:32:20.925Z,77.44
2022-11-25T19:34:56.458Z,78.09
2022-11-25T19:37:31.000Z,77.19
2022-11-25T19:40:14.454Z,77.17
2022-11-25T19:42:48.527Z,77.82
2022-11-25T19:45:22.354Z,78.08
2022-11-25T19:47:55.050Z,77.93
2022-11-25T19:50:28.778Z,77.11
2022-11-25T19:53:02.773Z,77.17
2022-11-25T19:55:35.315Z,77.42
2022-11-25T19:58:09.057Z,77.84
2022-11-25T20:00:43.098Z,77.54
2022-11-25T20:03:20.819Z,77.66
2022-11-25T20:05:57.571Z,77.22
2022-11-25T20:08:31.559Z,77.91
2022-11-25T20:11:04.073Z,77.19
2022-11-25T20:13:36.649Z,77.19
2022-11-25T20:16:16.097Z,77.80
2022-11-25T20:18:49.658Z,77.19
2022-11-25T20:21:28.065Z,77.33
2022-11-25T20:24:04.363Z,77.08
2022-11-25T20:26:37.990Z,77.62
2022-11-25T20:29:16.029Z,77.10
2022-11-25T20:31:52.535Z,77.48
2022-11-25T20:34:25.178Z,77.33
2022-11-25T20:36:57.705Z,77.29
2022-11-25T20:39:31.630Z,78.22
2022-11-25T20:42:04.504Z,77.86
2022-11-25T20:44:37.208Z,77.71
2022-11-25T20:47:14.843Z,77.86
2022-11-25T20:49:48.719Z,77.35
2022-11-25T20:52:26.925Z,77.01
2022-11-25T20:55:03.246Z,77.60
2022-11-25T20:57:36.529Z,77.62
2022-11-25T21:00:15.481Z,78.15
2022-11-25T21:02:48.094Z,77.86
2022-11-25T21:05:21.328Z,77.58
2022-11-25T21:07:55.380Z,76.95
2022-11-25T21:10:35.106Z,77.86
2022-11-25T21:13:15.017Z,77.44
2022-11-25T21:15:49.534Z,77.05
2022-11-25T21:18:22.569Z,76.88
2022-11-25T21:20:57.448Z,77.39
2022-11-25T21:23:33.933Z,77.36
2022-11-25T21:26:14.063Z,77.54
2022-11-25T21:28:49.582Z,77.37
2022-11-25T21:31:24.595Z,77.58
2022-11-25T21:33:58.891Z,77.20
2022-11-25T21:36:31.820Z,77.15
2022-11-25T21:39:07.233Z,77.80
2022-11-25T21:41:41.551Z,77.27
2022-11-25T21:44:21.339Z,77.88
2022-11-25T21:46:54.409Z,77.40
2022-11-25T21:49:27.423Z,77.72
2022-11-25T21:51:59.935Z,77.18
2022-11-25T21:54:32.471Z,76.98
2022-11-25T21:57:13.552Z,77.01
2022-11-25T21:59:46.908Z,77.70
2022-11-25T22:02:21.990Z,77.22
2022-11-25T22:04:59.476Z,77.80
2022-11-25T22:07:32.119Z,77.79
2022-11-25T22:10:05.402Z,77.53
2022-11-25T22:12:42.855Z,77.28
2022-11-25T22:15:18.758Z,77.21
2022-11-25T22:17:55.103Z,77.20
2022-11-25T22:20:30.609Z,77.25
2022-11-25T22:23:11.408Z,77.05
2022-11-25T22:25:45.046Z,77.31
2022-11-25T22:28:22.138Z,78.00
2022-11-25T22:30:56.219Z,77.67
2022-11-25T22:33:31.780Z,77.25
2022-11-25T22:36:05.047Z,77.49
2022-11-25T22:38:37.641Z,77.49
2022-11-25T22:41:10.992Z,77.62
2022-11-25T22:43:50.527Z,77.47
2022-11-25T22:46:22.966Z,77.55
2022-11-25T22:48:55.528Z,77.51
2022-11-25T22:51:28.225Z,77.31
2022-11-25T22:54:00.790Z,77.98
2022-11-25T22:56:33.320Z,77.56
2022-11-25T22:59:07.309Z,77.86
2022-11-25T23:01:40.077Z,77.67
2022-11-25T23:04:17.399Z,77.62
2022-11-25T23:06:51.198Z,77.69
2022-11-25T23:09:23.921Z,77.75
2022-11-25T23:11:56.499Z,76.80
2022-11-25T23:14:30.417Z,77.02
2022-11-25T23:17:02.962Z,77.35
2022-11-25T23:19:35.547Z,77.51
2022-11-25T23:22:10.772Z,77.15
2022-11-25T23:24:45.222Z,77.51
2022-11-25T23:27:17.869Z,77.81
2022-11-25T23:29:51.892Z,77.36
2022-11-25T23:32:24.216Z,76.92
2022-11-25T23:34:56.920Z,77.29
2022-11-25T23:37:29.314Z,77.07
2022-11-25T23:40:01.916Z,77.08
2022-11-25T23:42:35.265Z,77.59
2022-11-25T23:45:12.742Z,77.76
2022-11-25T23:47:46.599Z,76.95
2022-11-25T23:50:28.815Z,77.59
2022-11-25T23:53:03.542Z,77.77
2022-11-25T23:55:38.932Z,78.02
2022-11-25T23:58:17.860Z,77.73
